Time;durP1;ratioP1;P1;durP2;ratioP2;P2;SDS_P1;SDS_P2;PMS_P1;PMS_P2;Temp;Humidity;BMP_temperature;BMP_pressure;BME280_temperature;BME280_humidity;BME280_pressure;Samples;Min_cycle;Max_cycle;Signal;HPM_P1;HPM_P2
2021/06/08 00:01:13;;;;;;;16.20;13.47;;;;;;;;;;6287114;22;20444;-93
2021/06/08 00:03:39;;;;;;;18.30;15.10;;;;;;;;;;6284744;22;20754;-93
2021/06/08 00:06:05;;;;;;;23.90;16.47;;;;;;;;;;6287527;22;20420;-94
2021/06/08 00:08:31;;;;;;;19.47;16.20;;;;;;;;;;6286546;22;20409;-94
2021/06/08 00:10:57;;;;;;;21.27;15.20;;;;;;;;;;6288075;22;20415;-94
2021/06/08 00:13:24;;;;;;;23.00;17.50;;;;;;;;;;6287579;22;20400;-95
2021/06/08 00:15:50;;;;;;;20.30;16.40;;;;;;;;;;6287662;22;20411;-94
2021/06/08 00:18:16;;;;;;;21.27;17.57;;;;;;;;;;6285744;22;20467;-94
2021/06/08 00:20:43;;;;;;;20.50;16.83;;;;;;;;;;6287826;22;20508;-95
2021/06/08 00:23:09;;;;;;;23.83;17.60;;;;;;;;;;6287267;22;20408;-94
2021/06/08 00:25:35;;;;;;;21.80;16.80;;;;;;;;;;6290900;22;20401;-94
2021/06/08 00:28:04;;;;;;;19.80;15.30;;;;;;;;;;6286313;22;20417;-96
2021/06/08 00:30:32;;;;;;;23.57;17.10;;;;;;;;;;6287114;22;20412;-96
2021/06/08 00:32:58;;;;;;;22.63;14.80;;;;;;;;;;6286508;22;20440;-95
2021/06/08 00:35:25;;;;;;;26.97;16.80;;;;;;;;;;6287154;22;20407;-94
2021/06/08 00:37:51;;;;;;;20.37;16.43;;;;;;;;;;6288290;22;20413;-95
2021/06/08 00:40:17;;;;;;;20.67;15.33;;;;;;;;;;6286220;22;20448;-95
2021/06/08 00:42:45;;;;;;;17.93;15.60;;;;;;;;;;6288196;22;20420;-95
2021/06/08 00:45:11;;;;;;;20.97;15.67;;;;;;;;;;6286144;22;20409;-96
2021/06/08 00:47:39;;;;;;;21.67;17.73;;;;;;;;;;6287876;22;20397;-96
2021/06/08 00:50:05;;;;;;;22.40;18.53;;;;;;;;;;6286615;22;20397;-95
2021/06/08 00:52:32;;;;;;;25.13;17.40;;;;;;;;;;6287190;22;20420;-96
2021/06/08 00:54:58;;;;;;;25.33;18.40;;;;;;;;;;6285812;22;20412;-96
2021/06/08 00:57:24;;;;;;;22.97;18.43;;;;;;;;;;6287110;22;20413;-95
2021/06/08 00:59:50;;;;;;;39.27;23.23;;;;;;;;;;6285983;22;20443;-95
2021/06/08 01:02:16;;;;;;;22.53;17.33;;;;;;;;;;6289137;22;20417;-96
2021/06/08 01:04:43;;;;;;;22.80;17.13;;;;;;;;;;6288057;22;20409;-96
2021/06/08 01:07:09;;;;;;;21.57;17.63;;;;;;;;;;6289882;22;20424;-95
2021/06/08 01:09:35;;;;;;;21.70;17.03;;;;;;;;;;6288650;22;20416;-96
2021/06/08 01:12:13;;;;;;;25.70;17.50;;;;;;;;;;6295624;22;20413;-96
2021/06/08 01:14:39;;;;;;;21.07;16.80;;;;;;;;;;6290288;22;20417;-96
2021/06/08 01:17:05;;;;;;;24.33;18.17;;;;;;;;;;6287870;22;20413;-96
2021/06/08 01:19:32;;;;;;;22.57;17.20;;;;;;;;;;6287088;22;20443;-96
2021/06/08 01:21:59;;;;;;;18.43;14.87;;;;;;;;;;6285248;22;20461;-96
2021/06/08 01:24:25;;;;;;;25.10;16.50;;;;;;;;;;6288133;22;20415;-95
2021/06/08 01:26:51;;;;;;;22.10;17.43;;;;;;;;;;6288968;22;20416;-94
2021/06/08 01:29:18;;;;;;;22.37;17.00;;;;;;;;;;6289666;22;20412;-94
2021/06/08 01:31:44;;;;;;;22.77;17.27;;;;;;;;;;6288505;22;20444;-96
2021/06/08 01:34:10;;;;;;;20.33;16.20;;;;;;;;;;6289831;22;20409;-95
2021/06/08 01:36:38;;;;;;;22.80;17.00;;;;;;;;;;6288484;22;20416;-94
2021/06/08 01:39:06;;;;;;;24.03;17.23;;;;;;;;;;6290169;22;20409;-95
2021/06/08 01:41:33;;;;;;;24.63;17.03;;;;;;;;;;6288446;22;20459;-95
2021/06/08 01:43:59;;;;;;;23.27;18.10;;;;;;;;;;6289026;22;20412;-94
2021/06/08 01:46:25;;;;;;;32.80;18.53;;;;;;;;;;6287925;22;20976;-95
2021/06/08 01:48:52;;;;;;;28.67;19.90;;;;;;;;;;6289003;22;20416;-95
2021/06/08 01:51:22;;;;;;;24.47;18.37;;;;;;;;;;6288978;22;20436;-96
2021/06/08 01:53:53;;;;;;;28.53;18.53;;;;;;;;;;6289224;22;20439;-95
2021/06/08 01:56:23;;;;;;;25.90;18.30;;;;;;;;;;6288507;22;20417;-95
2021/06/08 01:58:52;;;;;;;26.80;18.57;;;;;;;;;;6289680;22;20413;-95
2021/06/08 02:01:21;;;;;;;25.90;17.40;;;;;;;;;;6288299;22;20472;-96
2021/06/08 02:03:52;;;;;;;24.07;16.93;;;;;;;;;;6287766;22;20468;-95
2021/06/08 02:06:27;;;;;;;22.87;16.73;;;;;;;;;;6287148;22;20429;-96
2021/06/08 02:08:57;;;;;;;22.47;17.57;;;;;;;;;;6286472;22;20401;-96
2021/06/08 02:11:27;;;;;;;19.70;15.57;;;;;;;;;;6287417;22;20425;-96
2021/06/08 02:14:01;;;;;;;20.23;16.73;;;;;;;;;;6287763;22;20417;-96
2021/06/08 02:16:31;;;;;;;17.23;14.67;;;;;;;;;;6287288;22;20452;-96
2021/06/08 02:18:57;;;;;;;20.43;15.10;;;;;;;;;;6286613;22;20419;-96
2021/06/08 02:21:26;;;;;;;20.80;15.33;;;;;;;;;;6289224;22;20452;-96
2021/06/08 02:23:53;;;;;;;20.30;15.17;;;;;;;;;;6287477;22;20413;-96
2021/06/08 02:26:20;;;;;;;15.57;13.77;;;;;;;;;;6287062;22;20414;-95
2021/06/08 02:28:50;;;;;;;17.90;13.93;;;;;;;;;;6287050;22;20468;-95
2021/06/08 02:31:18;;;;;;;21.93;14.47;;;;;;;;;;6295774;22;20423;-95
2021/06/08 02:33:46;;;;;;;17.70;15.10;;;;;;;;;;6290317;22;20437;-96
2021/06/08 02:36:19;;;;;;;23.03;15.80;;;;;;;;;;6289025;22;20421;-96
2021/06/08 02:41:51;;;;;;;18.03;14.30;;;;;;;;;;6293240;22;20427;-96
2021/06/08 02:44:24;;;;;;;20.20;14.77;;;;;;;;;;6289480;22;20413;-95
2021/06/08 02:46:51;;;;;;;19.57;14.77;;;;;;;;;;6289755;22;20401;-96
2021/06/08 02:49:22;;;;;;;21.40;14.60;;;;;;;;;;6290609;22;20417;-95
2021/06/08 02:51:48;;;;;;;20.00;15.77;;;;;;;;;;6291214;22;20451;-95
2021/06/08 02:54:15;;;;;;;22.90;16.10;;;;;;;;;;6290747;22;20449;-95
2021/06/08 02:56:41;;;;;;;18.87;15.23;;;;;;;;;;6289520;22;20413;-95
2021/06/08 02:59:08;;;;;;;21.20;14.40;;;;;;;;;;6286712;22;20399;-96
2021/06/08 03:01:37;;;;;;;20.00;16.07;;;;;;;;;;6291079;22;20444;-95
2021/06/08 03:04:03;;;;;;;18.23;14.00;;;;;;;;;;6289581;22;20419;-95
2021/06/08 03:06:33;;;;;;;15.70;12.30;;;;;;;;;;6290929;22;20416;-94
2021/06/08 03:09:03;;;;;;;17.47;15.40;;;;;;;;;;6293645;22;20435;-96
2021/06/08 03:11:31;;;;;;;22.40;16.63;;;;;;;;;;6299053;22;20416;-96
2021/06/08 03:14:01;;;;;;;18.20;13.93;;;;;;;;;;6301112;22;20389;-96
2021/06/08 03:16:30;;;;;;;21.10;13.50;;;;;;;;;;6300821;22;20484;-96
2021/06/08 03:18:58;;;;;;;17.37;12.80;;;;;;;;;;6292482;22;21041;-95
2021/06/08 03:21:27;;;;;;;15.83;12.47;;;;;;;;;;6289991;22;20483;-96
2021/06/08 03:23:55;;;;;;;15.03;11.97;;;;;;;;;;6289682;22;20903;-95
2021/06/08 03:26:22;;;;;;;15.20;12.27;;;;;;;;;;6288732;22;20966;-96
2021/06/08 03:28:50;;;;;;;18.03;14.40;;;;;;;;;;6289483;22;20413;-96
2021/06/08 03:31:18;;;;;;;19.20;15.30;;;;;;;;;;6292211;22;20488;-95
2021/06/08 03:33:44;;;;;;;21.10;14.80;;;;;;;;;;6292354;22;20484;-96
2021/06/08 03:36:16;;;;;;;20.17;14.63;;;;;;;;;;6296110;22;20431;-96
2021/06/08 03:38:43;;;;;;;14.00;11.83;;;;;;;;;;6297231;22;20417;-96
2021/06/08 03:41:10;;;;;;;13.63;11.60;;;;;;;;;;6294739;22;20544;-96
2021/06/08 03:43:39;;;;;;;17.40;13.30;;;;;;;;;;6293308;22;20416;-96
2021/06/08 03:46:11;;;;;;;17.73;14.50;;;;;;;;;;6296306;22;20423;-96
2021/06/08 03:48:39;;;;;;;21.43;16.30;;;;;;;;;;6297798;22;20405;-95
2021/06/08 03:51:16;;;;;;;21.20;15.00;;;;;;;;;;6296164;22;20424;-96
2021/06/08 03:53:51;;;;;;;19.67;15.50;;;;;;;;;;6272067;22;20404;-96
2021/06/08 03:56:18;;;;;;;19.20;14.73;;;;;;;;;;6294918;22;20443;-96
2021/06/08 03:58:44;;;;;;;18.93;14.80;;;;;;;;;;6290912;22;20524;-94
2021/06/08 04:01:11;;;;;;;22.03;15.77;;;;;;;;;;6290707;22;20476;-96
2021/06/08 04:03:40;;;;;;;25.27;16.13;;;;;;;;;;6293666;22;20436;-96
2021/06/08 04:06:06;;;;;;;29.10;16.60;;;;;;;;;;6291848;22;20421;-95
2021/06/08 04:08:33;;;;;;;29.57;15.67;;;;;;;;;;6295686;22;20424;-96
2021/06/08 04:11:06;;;;;;;21.30;16.40;;;;;;;;;;6294845;22;20455;-95
2021/06/08 04:13:43;;;;;;;20.97;16.67;;;;;;;;;;6298788;22;20413;-96
2021/06/08 04:16:23;;;;;;;21.53;14.37;;;;;;;;;;6272779;22;20468;-96
2021/06/08 04:18:49;;;;;;;21.70;16.73;;;;;;;;;;6291986;22;20411;-96
2021/06/08 04:21:48;;;;;;;22.17;16.53;;;;;;;;;;6293525;22;20449;-96
2021/06/08 04:27:17;;;;;;;17.53;13.70;;;;;;;;;;6243971;22;20458;-96
2021/06/08 04:29:54;;;;;;;22.77;13.97;;;;;;;;;;6296784;22;20472;-96
2021/06/08 04:45:51;;;;;;;20.70;14.10;;;;;;;;;;6280025;22;20462;-96
2021/06/08 04:53:28;;;;;;;21.80;17.23;;;;;;;;;;6254223;22;20456;-95
2021/06/08 04:55:56;;;;;;;16.10;14.40;;;;;;;;;;6248891;22;20453;-96
2021/06/08 04:58:23;;;;;;;17.20;14.70;;;;;;;;;;6259961;23;20429;-96
2021/06/08 05:00:54;;;;;;;19.63;14.93;;;;;;;;;;6262896;23;20446;-96
2021/06/08 05:03:23;;;;;;;18.17;14.80;;;;;;;;;;6259348;23;20417;-96
2021/06/08 05:05:51;;;;;;;20.00;14.27;;;;;;;;;;6258604;23;20421;-96
2021/06/08 05:08:20;;;;;;;17.27;13.73;;;;;;;;;;6259220;23;20532;-96
2021/06/08 05:10:49;;;;;;;18.63;14.70;;;;;;;;;;6257700;23;20452;-95
2021/06/08 05:13:15;;;;;;;18.53;15.63;;;;;;;;;;6259785;23;20738;-96
2021/06/08 05:15:42;;;;;;;19.30;15.33;;;;;;;;;;6287393;22;20417;-95
2021/06/08 05:18:12;;;;;;;18.80;15.57;;;;;;;;;;6289289;22;20484;-95
2021/06/08 05:20:41;;;;;;;21.27;15.07;;;;;;;;;;6289895;22;20441;-96
2021/06/08 05:23:09;;;;;;;19.40;15.97;;;;;;;;;;6261153;22;20448;-96
2021/06/08 05:25:56;;;;;;;16.83;14.93;;;;;;;;;;6297596;22;20419;-96
2021/06/08 06:09:40;;;;;;;17.20;15.40;;;;;;;;;;6250710;22;20456;-96
2021/06/08 06:12:08;;;;;;;19.67;16.43;;;;;;;;;;6294294;22;20473;-96
2021/06/08 06:17:52;;;;;;;21.77;15.07;;;;;;;;;;6289069;22;20461;-96
2021/06/08 06:22:55;;;;;;;21.93;16.17;;;;;;;;;;6259165;22;20452;-96
2021/06/08 06:25:23;;;;;;;17.57;15.23;;;;;;;;;;6299067;22;20414;-96
2021/06/08 06:28:00;;;;;;;19.57;16.30;;;;;;;;;;6301559;22;20412;-96
2021/06/08 06:35:42;;;;;;;19.90;17.80;;;;;;;;;;6268375;22;20535;-96
2021/06/08 06:46:18;;;;;;;25.13;22.13;;;;;;;;;;6293646;22;20410;-96
2021/06/08 06:48:45;;;;;;;25.70;21.30;;;;;;;;;;6287745;22;20469;-96
2021/06/08 06:51:32;;;;;;;24.80;21.67;;;;;;;;;;6301663;22;20861;-96
2021/06/08 06:53:59;;;;;;;23.60;20.73;;;;;;;;;;6290971;22;20411;-96
2021/06/08 06:57:10;;;;;;;26.67;22.00;;;;;;;;;;6293665;22;20415;-96
2021/06/08 06:59:41;;;;;;;24.97;20.73;;;;;;;;;;6286073;22;20418;-95
2021/06/08 07:02:18;;;;;;;26.30;21.77;;;;;;;;;;6290995;22;20405;-96
2021/06/08 07:04:45;;;;;;;29.30;22.23;;;;;;;;;;6286191;22;20489;-96
2021/06/08 07:07:12;;;;;;;24.40;21.77;;;;;;;;;;6288091;22;20799;-96
2021/06/08 07:10:13;;;;;;;23.40;20.80;;;;;;;;;;6292123;22;20413;-96
2021/06/08 07:12:41;;;;;;;21.70;19.50;;;;;;;;;;6223136;22;20426;-95
2021/06/08 07:15:24;;;;;;;27.20;20.20;;;;;;;;;;6290795;22;20422;-96
2021/06/08 07:20:58;;;;;;;24.50;20.63;;;;;;;;;;6294717;22;20453;-95
2021/06/08 07:31:10;;;;;;;22.13;19.87;;;;;;;;;;6211181;22;20492;-96
2021/06/08 08:22:09;;;;;;;20.90;18.60;;;;;;;;;;6186121;22;20551;-96
2021/06/08 08:40:42;;;;;;;18.70;17.07;;;;;;;;;;6249680;22;20477;-95
2021/06/08 08:48:19;;;;;;;19.67;17.80;;;;;;;;;;6253347;22;20546;-96
2021/06/08 08:51:11;;;;;;;18.03;16.27;;;;;;;;;;6239625;22;20450;-96
2021/06/08 08:57:18;;;;;;;18.90;17.20;;;;;;;;;;6232002;22;20471;-96
2021/06/08 09:02:53;;;;;;;16.10;14.63;;;;;;;;;;6245113;22;20452;-96
2021/06/08 09:08:21;;;;;;;18.43;16.60;;;;;;;;;;6262146;22;20496;-96
2021/06/08 09:22:01;;;;;;;15.70;14.33;;;;;;;;;;6271158;22;20460;-95
2021/06/08 09:24:30;;;;;;;17.43;15.93;;;;;;;;;;6280710;22;20490;-96
2021/06/08 09:26:58;;;;;;;18.33;16.50;;;;;;;;;;6295012;22;20416;-96
2021/06/08 09:29:39;;;;;;;15.27;13.97;;;;;;;;;;6302455;22;20425;-96
2021/06/08 10:16:24;;;;;;;12.87;11.87;;;;;;;;;;6258453;22;20483;-94
2021/06/08 10:29:46;;;;;;;9.93;9.03;;;;;;;;;;6294312;22;20453;-96
2021/06/08 10:32:17;;;;;;;9.93;9.13;;;;;;;;;;6292889;22;20433;-95
2021/06/08 10:34:43;;;;;;;9.63;8.70;;;;;;;;;;6291937;22;20420;-94
2021/06/08 10:39:44;;;;;;;9.97;9.27;;;;;;;;;;6273918;22;20478;-95
2021/06/08 10:42:15;;;;;;;11.20;10.10;;;;;;;;;;6294278;22;20435;-96
2021/06/08 10:52:47;;;;;;;10.60;9.70;;;;;;;;;;6192604;22;20408;-96
2021/06/08 11:04:28;;;;;;;9.60;8.80;;;;;;;;;;6275398;22;20479;-96
2021/06/08 11:15:29;;;;;;;9.97;9.07;;;;;;;;;;6291581;22;20492;-96
2021/06/08 11:17:57;;;;;;;9.90;9.00;;;;;;;;;;6271912;22;20461;-96
2021/06/08 11:20:29;;;;;;;8.97;8.30;;;;;;;;;;6294606;22;20427;-96
2021/06/08 11:25:55;;;;;;;9.67;8.73;;;;;;;;;;6293574;22;20467;-95
2021/06/08 11:28:39;;;;;;;8.13;7.50;;;;;;;;;;6295121;22;20497;-96
2021/06/08 11:31:10;;;;;;;8.53;7.93;;;;;;;;;;6249565;22;20512;-95
2021/06/08 11:33:38;;;;;;;9.53;8.63;;;;;;;;;;6271554;22;20397;-96
2021/06/08 11:42:14;;;;;;;9.70;8.90;;;;;;;;;;6295186;22;20471;-95
2021/06/08 11:55:58;;;;;;;8.27;7.67;;;;;;;;;;6267026;22;20453;-96
2021/06/08 12:20:14;;;;;;;9.47;8.60;;;;;;;;;;6278347;22;20440;-95
2021/06/08 12:25:39;;;;;;;8.73;8.13;;;;;;;;;;6300155;22;20454;-95
2021/06/08 12:28:16;;;;;;;8.83;8.23;;;;;;;;;;6291359;22;20460;-94
2021/06/08 12:31:12;;;;;;;8.00;7.47;;;;;;;;;;6298782;22;20409;-95
2021/06/08 12:33:38;;;;;;;9.73;8.93;;;;;;;;;;6239204;22;20417;-92
2021/06/08 12:39:18;;;;;;;7.97;7.37;;;;;;;;;;6131421;23;20401;-95
2021/06/08 12:44:33;;;;;;;9.70;9.00;;;;;;;;;;6241540;22;20440;-94
2021/06/08 12:52:58;;;;;;;8.17;7.57;;;;;;;;;;6265906;22;20449;-96
2021/06/08 12:55:29;;;;;;;8.97;8.27;;;;;;;;;;6265392;23;20817;-95
2021/06/08 13:06:23;;;;;;;7.87;7.37;;;;;;;;;;6206281;22;20474;-95
2021/06/08 13:22:35;;;;;;;8.80;8.00;;;;;;;;;;6265396;22;20460;-96
2021/06/08 13:39:14;;;;;;;10.00;9.23;;;;;;;;;;6214203;22;20445;-96
2021/06/08 13:50:35;;;;;;;14.60;8.73;;;;;;;;;;6277537;22;20448;-94
2021/06/08 13:53:10;;;;;;;10.17;9.20;;;;;;;;;;6235035;23;20414;-95
2021/06/08 13:55:45;;;;;;;10.33;9.43;;;;;;;;;;6238557;23;20444;-96
2021/06/08 14:01:10;;;;;;;7.03;6.43;;;;;;;;;;6236300;23;20535;-95
2021/06/08 14:03:36;;;;;;;7.30;6.50;;;;;;;;;;6236132;23;20410;-95
2021/06/08 14:06:19;;;;;;;10.00;6.67;;;;;;;;;;6233121;23;20490;-94
2021/06/08 14:09:12;;;;;;;11.90;6.00;;;;;;;;;;6235606;23;20403;-95
2021/06/08 14:11:53;;;;;;;7.63;5.70;;;;;;;;;;6232794;23;20421;-95
2021/06/08 14:14:30;;;;;;;6.67;5.80;;;;;;;;;;6236787;23;20414;-94
2021/06/08 14:17:09;;;;;;;7.13;5.80;;;;;;;;;;6258282;22;20451;-96
2021/06/08 14:22:12;;;;;;;7.73;6.10;;;;;;;;;;6278810;22;20433;-96
2021/06/08 14:25:03;;;;;;;6.50;5.20;;;;;;;;;;6227121;22;20461;-96
2021/06/08 14:27:44;;;;;;;5.43;4.93;;;;;;;;;;6269393;22;20455;-96
2021/06/08 14:30:12;;;;;;;7.23;5.37;;;;;;;;;;6269312;23;20393;-96
2021/06/08 14:32:38;;;;;;;5.20;4.80;;;;;;;;;;6237954;23;20412;-96
2021/06/08 14:40:25;;;;;;;10.20;5.90;;;;;;;;;;6281226;22;20465;-96
2021/06/08 14:42:54;;;;;;;6.07;5.57;;;;;;;;;;6264325;22;20441;-96
2021/06/08 14:45:28;;;;;;;6.20;5.70;;;;;;;;;;6275170;22;20459;-96
2021/06/08 14:47:56;;;;;;;5.43;4.93;;;;;;;;;;6297937;22;20424;-94
2021/06/08 14:50:34;;;;;;;6.00;5.50;;;;;;;;;;6300849;22;20408;-96
2021/06/08 14:53:10;;;;;;;6.60;4.80;;;;;;;;;;6299336;22;20401;-96
2021/06/08 14:58:03;;;;;;;6.00;5.50;;;;;;;;;;6288710;22;20444;-96
2021/06/08 15:03:17;;;;;;;5.03;4.47;;;;;;;;;;6294048;22;20442;-94
2021/06/08 15:05:56;;;;;;;5.77;5.27;;;;;;;;;;6296966;22;20406;-96
2021/06/08 15:08:42;;;;;;;6.67;6.07;;;;;;;;;;6299341;22;20428;-96
2021/06/08 15:11:13;;;;;;;6.13;5.53;;;;;;;;;;6296827;22;20519;-96
2021/06/08 15:13:49;;;;;;;5.40;5.00;;;;;;;;;;6301231;22;20475;-96
2021/06/08 15:16:17;;;;;;;5.73;5.17;;;;;;;;;;6299185;22;20422;-96
2021/06/08 15:24:33;;;;;;;5.20;4.90;;;;;;;;;;6244662;22;20476;-96
2021/06/08 15:40:48;;;;;;;7.80;6.20;;;;;;;;;;6197545;22;20451;-94
2021/06/08 15:48:45;;;;;;;6.63;6.13;;;;;;;;;;6249273;22;20459;-96
2021/06/08 15:51:12;;;;;;;6.53;6.00;;;;;;;;;;6289300;22;20459;-96
2021/06/08 15:53:38;;;;;;;6.57;6.00;;;;;;;;;;6292622;22;20419;-96
2021/06/08 15:56:05;;;;;;;8.23;6.57;;;;;;;;;;6293366;22;21148;-95
2021/06/08 15:58:33;;;;;;;6.97;6.37;;;;;;;;;;6271664;22;20472;-96
2021/06/08 16:00:59;;;;;;;6.77;6.17;;;;;;;;;;6287196;22;20451;-95
2021/06/08 16:35:01;;;;;;;7.57;6.87;;;;;;;;;;6216237;22;20536;-96
2021/06/08 16:40:18;;;;;;;8.07;6.43;;;;;;;;;;6247895;22;20454;-96
2021/06/08 16:42:45;;;;;;;8.80;7.90;;;;;;;;;;6269656;23;20418;-96
2021/06/08 16:45:16;;;;;;;8.50;7.57;;;;;;;;;;6267607;22;20401;-96
2021/06/08 16:47:45;;;;;;;7.53;6.93;;;;;;;;;;6266737;23;20501;-96
2021/06/08 16:50:13;;;;;;;7.93;7.13;;;;;;;;;;6292310;22;20431;-96
2021/06/08 16:55:28;;;;;;;8.50;7.70;;;;;;;;;;6294328;22;20419;-96
2021/06/08 16:58:05;;;;;;;7.90;7.10;;;;;;;;;;6295746;22;20435;-96
2021/06/08 17:00:35;;;;;;;8.47;7.10;;;;;;;;;;6271164;22;20487;-95
2021/06/08 17:03:01;;;;;;;7.80;7.10;;;;;;;;;;6266705;22;20459;-93
2021/06/08 17:05:41;;;;;;;7.83;7.13;;;;;;;;;;6248366;22;20453;-95
2021/06/08 17:10:50;;;;;;;8.57;6.90;;;;;;;;;;6226284;23;20400;-96
2021/06/08 17:13:17;;;;;;;8.13;7.33;;;;;;;;;;6264852;23;20473;-96
2021/06/08 17:15:44;;;;;;;10.23;7.70;;;;;;;;;;6266517;23;20428;-95
2021/06/08 17:18:12;;;;;;;7.50;6.90;;;;;;;;;;6264513;23;20423;-94
2021/06/08 17:20:39;;;;;;;8.10;7.40;;;;;;;;;;6267714;23;20410;-96
2021/06/08 17:23:08;;;;;;;8.50;7.80;;;;;;;;;;6262916;23;20420;-96
2021/06/08 17:25:37;;;;;;;7.60;6.90;;;;;;;;;;6266237;23;20416;-96
2021/06/08 17:28:25;;;;;;;8.60;7.80;;;;;;;;;;6272742;22;20389;-96
2021/06/08 17:30:52;;;;;;;7.50;6.70;;;;;;;;;;6253610;22;20444;-96
2021/06/08 17:33:41;;;;;;;8.10;7.40;;;;;;;;;;6268697;22;20453;-95
2021/06/08 17:36:47;;;;;;;10.47;6.53;;;;;;;;;;6271123;22;20436;-96
2021/06/08 17:39:42;;;;;;;8.43;7.73;;;;;;;;;;6264982;22;20441;-95
2021/06/08 17:42:08;;;;;;;7.53;6.83;;;;;;;;;;6239356;23;20460;-96
2021/06/08 17:44:34;;;;;;;7.67;6.97;;;;;;;;;;6265547;23;20413;-96
2021/06/08 17:47:12;;;;;;;7.70;6.93;;;;;;;;;;6240610;23;20497;-94
2021/06/08 17:55:13;;;;;;;8.30;7.47;;;;;;;;;;6260273;22;20451;-95
2021/06/08 17:57:41;;;;;;;7.70;6.90;;;;;;;;;;6258599;22;20444;-96
2021/06/08 18:11:39;;;;;;;8.30;7.60;;;;;;;;;;6223601;22;20723;-96
2021/06/08 18:36:44;;;;;;;9.70;7.30;;;;;;;;;;6265509;22;20438;-95
2021/06/08 18:39:14;;;;;;;8.77;7.87;;;;;;;;;;6249422;22;20449;-96
2021/06/08 18:47:04;;;;;;;7.90;7.13;;;;;;;;;;6222596;22;20440;-95
2021/06/08 21:43:49;;;;;;;11.33;9.57;;;;;;;;;;6261590;22;20520;-96
2021/06/08 21:46:18;;;;;;;11.87;10.57;;;;;;;;;;6270332;23;20409;-96
